sensor_id;sensor_type;location;lat;lon;timestamp;P1;durP1;ratioP1;P2;durP2;ratioP2
5217;SDS011;26539;51.064;6.346;2022-11-23T00:04:42;5.53;;;1.43;;
5217;SDS011;26539;51.064;6.346;2022-11-23T00:07:11;7.97;;;1.90;;
5217;SDS011;26539;51.064;6.346;2022-11-23T00:10:11;6.97;;;1.63;;
5217;SDS011;26539;51.064;6.346;2022-11-23T00:13:06;3.47;;;1.47;;
5217;SDS011;26539;51.064;6.346;2022-11-23T00:15:54;10.10;;;1.70;;
5217;SDS011;26539;51.064;6.346;2022-11-23T00:18:52;12.40;;;1.87;;
5217;SDS011;26539;51.064;6.346;2022-11-23T00:21:25;5.00;;;1.70;;
5217;SDS011;26539;51.064;6.346;2022-11-23T00:24:14;6.33;;;1.70;;
5217;SDS011;26539;51.064;6.346;2022-11-23T00:26:46;4.63;;;1.60;;
5217;SDS011;26539;51.064;6.346;2022-11-23T00:29:54;3.23;;;1.40;;
5217;SDS011;26539;51.064;6.346;2022-11-23T00:33:06;5.10;;;1.97;;
5217;SDS011;26539;51.064;6.346;2022-11-23T00:35:43;5.83;;;1.77;;
5217;SDS011;26539;51.064;6.346;2022-11-23T00:38:41;3.40;;;1.77;;
5217;SDS011;26539;51.064;6.346;2022-11-23T00:41:37;6.60;;;1.80;;
5217;SDS011;26539;51.064;6.346;2022-11-23T00:44:05;7.73;;;2.07;;
5217;SDS011;26539;51.064;6.346;2022-11-23T00:46:51;3.53;;;1.60;;
5217;SDS011;26539;51.064;6.346;2022-11-23T00:52:16;4.27;;;1.40;;
5217;SDS011;26539;51.064;6.346;2022-11-23T00:55:49;13.47;;;2.10;;
5217;SDS011;26539;51.064;6.346;2022-11-23T01:04:43;4.00;;;1.97;;
5217;SDS011;26539;51.064;6.346;2022-11-23T01:07:34;10.10;;;2.33;;
5217;SDS011;26539;51.064;6.346;2022-11-23T01:10:23;5.97;;;1.80;;
5217;SDS011;26539;51.064;6.346;2022-11-23T01:13:29;12.03;;;2.43;;
5217;SDS011;26539;51.064;6.346;2022-11-23T01:16:29;3.27;;;1.53;;
5217;SDS011;26539;51.064;6.346;2022-11-23T01:19:35;6.53;;;1.77;;
5217;SDS011;26539;51.064;6.346;2022-11-23T01:22:48;8.00;;;1.47;;
5217;SDS011;26539;51.064;6.346;2022-11-23T01:25:16;4.00;;;2.40;;
5217;SDS011;26539;51.064;6.346;2022-11-23T01:27:44;7.07;;;1.80;;
5217;SDS011;26539;51.064;6.346;2022-11-23T01:33:27;6.90;;;2.67;;
5217;SDS011;26539;51.064;6.346;2022-11-23T01:39:33;6.40;;;2.07;;
5217;SDS011;26539;51.064;6.346;2022-11-23T01:45:38;6.00;;;1.77;;
5217;SDS011;26539;51.064;6.346;2022-11-23T01:48:28;10.23;;;2.23;;
5217;SDS011;26539;51.064;6.346;2022-11-23T01:51:39;12.07;;;2.10;;
5217;SDS011;26539;51.064;6.346;2022-11-23T01:54:31;7.63;;;2.70;;
5217;SDS011;26539;51.064;6.346;2022-11-23T01:57:46;7.50;;;2.27;;
5217;SDS011;26539;51.064;6.346;2022-11-23T02:00:21;9.43;;;2.43;;
5217;SDS011;26539;51.064;6.346;2022-11-23T02:03:07;11.63;;;2.53;;
5217;SDS011;26539;51.064;6.346;2022-11-23T02:05:43;4.77;;;2.10;;
5217;SDS011;26539;51.064;6.346;2022-11-23T02:08:27;8.80;;;2.50;;
5217;SDS011;26539;51.064;6.346;2022-11-23T02:14:05;7.03;;;2.00;;
5217;SDS011;26539;51.064;6.346;2022-11-23T02:16:36;10.73;;;2.17;;
5217;SDS011;26539;51.064;6.346;2022-11-23T02:19:36;5.83;;;1.80;;
5217;SDS011;26539;51.064;6.346;2022-11-23T02:22:28;7.13;;;2.10;;
5217;SDS011;26539;51.064;6.346;2022-11-23T02:28:15;6.77;;;2.17;;
5217;SDS011;26539;51.064;6.346;2022-11-23T02:30:50;5.53;;;1.87;;
5217;SDS011;26539;51.064;6.346;2022-11-23T02:33:26;16.30;;;2.43;;
5217;SDS011;26539;51.064;6.346;2022-11-23T02:35:59;12.30;;;2.70;;
5217;SDS011;26539;51.064;6.346;2022-11-23T02:38:50;4.67;;;2.10;;
5217;SDS011;26539;51.064;6.346;2022-11-23T02:41:18;15.27;;;2.73;;
5217;SDS011;26539;51.064;6.346;2022-11-23T02:44:13;10.17;;;2.63;;
5217;SDS011;26539;51.064;6.346;2022-11-23T02:47:41;8.07;;;2.33;;
5217;SDS011;26539;51.064;6.346;2022-11-23T02:50:21;12.50;;;2.80;;
5217;SDS011;26539;51.064;6.346;2022-11-23T02:56:45;10.10;;;2.90;;
5217;SDS011;26539;51.064;6.346;2022-11-23T02:59:13;8.13;;;2.10;;
5217;SDS011;26539;51.064;6.346;2022-11-23T03:02:23;9.03;;;1.97;;
5217;SDS011;26539;51.064;6.346;2022-11-23T03:07:44;8.50;;;2.57;;
5217;SDS011;26539;51.064;6.346;2022-11-23T03:10:09;9.90;;;2.80;;
5217;SDS011;26539;51.064;6.346;2022-11-23T03:12:40;11.47;;;2.40;;
5217;SDS011;26539;51.064;6.346;2022-11-23T03:15:08;9.20;;;2.17;;
5217;SDS011;26539;51.064;6.346;2022-11-23T03:17:34;7.83;;;2.23;;
5217;SDS011;26539;51.064;6.346;2022-11-23T03:20:02;11.40;;;2.80;;
5217;SDS011;26539;51.064;6.346;2022-11-23T03:22:31;15.60;;;3.30;;
5217;SDS011;26539;51.064;6.346;2022-11-23T03:24:58;8.93;;;2.47;;
5217;SDS011;26539;51.064;6.346;2022-11-23T03:27:25;8.77;;;2.50;;
5217;SDS011;26539;51.064;6.346;2022-11-23T03:30:03;6.37;;;2.00;;
5217;SDS011;26539;51.064;6.346;2022-11-23T03:32:32;9.73;;;2.27;;
5217;SDS011;26539;51.064;6.346;2022-11-23T03:35:01;6.20;;;2.60;;
5217;SDS011;26539;51.064;6.346;2022-11-23T03:37:44;11.20;;;2.17;;
5217;SDS011;26539;51.064;6.346;2022-11-23T03:42:42;5.37;;;2.60;;
5217;SDS011;26539;51.064;6.346;2022-11-23T03:45:08;13.77;;;3.00;;
5217;SDS011;26539;51.064;6.346;2022-11-23T03:47:34;9.00;;;2.27;;
5217;SDS011;26539;51.064;6.346;2022-11-23T03:50:17;11.37;;;3.70;;
5217;SDS011;26539;51.064;6.346;2022-11-23T03:52:56;6.03;;;2.10;;
5217;SDS011;26539;51.064;6.346;2022-11-23T03:58:40;10.83;;;2.47;;
5217;SDS011;26539;51.064;6.346;2022-11-23T04:01:26;6.13;;;1.80;;
5217;SDS011;26539;51.064;6.346;2022-11-23T04:03:54;9.40;;;2.30;;
5217;SDS011;26539;51.064;6.346;2022-11-23T04:06:22;11.30;;;2.30;;
5217;SDS011;26539;51.064;6.346;2022-11-23T04:08:58;10.80;;;2.93;;
5217;SDS011;26539;51.064;6.346;2022-11-23T04:11:38;6.07;;;1.53;;
5217;SDS011;26539;51.064;6.346;2022-11-23T04:14:06;7.83;;;2.10;;
5217;SDS011;26539;51.064;6.346;2022-11-23T04:16:39;8.73;;;2.10;;
5217;SDS011;26539;51.064;6.346;2022-11-23T04:19:07;8.13;;;2.27;;
5217;SDS011;26539;51.064;6.346;2022-11-23T04:21:33;4.93;;;1.77;;
5217;SDS011;26539;51.064;6.346;2022-11-23T04:24:08;6.47;;;1.97;;
5217;SDS011;26539;51.064;6.346;2022-11-23T04:26:35;7.37;;;2.13;;
5217;SDS011;26539;51.064;6.346;2022-11-23T04:29:06;11.87;;;2.67;;
5217;SDS011;26539;51.064;6.346;2022-11-23T04:31:36;8.80;;;2.00;;
5217;SDS011;26539;51.064;6.346;2022-11-23T04:34:07;5.67;;;1.73;;
5217;SDS011;26539;51.064;6.346;2022-11-23T04:36:35;10.83;;;2.13;;
5217;SDS011;26539;51.064;6.346;2022-11-23T04:39:03;7.10;;;2.10;;
5217;SDS011;26539;51.064;6.346;2022-11-23T04:41:38;10.00;;;1.73;;
5217;SDS011;26539;51.064;6.346;2022-11-23T04:44:13;6.70;;;1.70;;
5217;SDS011;26539;51.064;6.346;2022-11-23T04:46:52;7.90;;;2.13;;
5217;SDS011;26539;51.064;6.346;2022-11-23T04:49:18;11.33;;;3.40;;
5217;SDS011;26539;51.064;6.346;2022-11-23T04:51:43;12.00;;;2.27;;
5217;SDS011;26539;51.064;6.346;2022-11-23T04:54:11;13.97;;;2.60;;
5217;SDS011;26539;51.064;6.346;2022-11-23T04:56:37;9.00;;;1.70;;
5217;SDS011;26539;51.064;6.346;2022-11-23T04:59:10;8.40;;;2.10;;
5217;SDS011;26539;51.064;6.346;2022-11-23T05:01:53;13.40;;;2.17;;
5217;SDS011;26539;51.064;6.346;2022-11-23T05:04:38;5.77;;;2.30;;
5217;SDS011;26539;51.064;6.346;2022-11-23T05:07:11;9.73;;;2.10;;
5217;SDS011;26539;51.064;6.346;2022-11-23T05:09:45;8.77;;;2.20;;
5217;SDS011;26539;51.064;6.346;2022-11-23T05:12:20;9.50;;;2.13;;
5217;SDS011;26539;51.064;6.346;2022-11-23T05:14:46;9.60;;;2.03;;
5217;SDS011;26539;51.064;6.346;2022-11-23T05:17:14;11.77;;;2.70;;
5217;SDS011;26539;51.064;6.346;2022-11-23T05:19:42;15.23;;;3.00;;
5217;SDS011;26539;51.064;6.346;2022-11-23T05:22:10;7.97;;;2.23;;
5217;SDS011;26539;51.064;6.346;2022-11-23T05:24:40;14.67;;;2.07;;
5217;SDS011;26539;51.064;6.346;2022-11-23T05:27:08;13.57;;;3.83;;
5217;SDS011;26539;51.064;6.346;2022-11-23T05:29:36;8.70;;;2.17;;
5217;SDS011;26539;51.064;6.346;2022-11-23T05:32:02;14.43;;;3.20;;
5217;SDS011;26539;51.064;6.346;2022-11-23T05:34:38;10.30;;;2.20;;
5217;SDS011;26539;51.064;6.346;2022-11-23T05:37:12;12.53;;;2.50;;
5217;SDS011;26539;51.064;6.346;2022-11-23T05:39:38;14.77;;;3.00;;
5217;SDS011;26539;51.064;6.346;2022-11-23T05:42:15;11.80;;;2.87;;
5217;SDS011;26539;51.064;6.346;2022-11-23T05:44:43;15.23;;;3.00;;
5217;SDS011;26539;51.064;6.346;2022-11-23T05:47:11;9.37;;;2.47;;
5217;SDS011;26539;51.064;6.346;2022-11-23T05:49:41;17.93;;;3.10;;
5217;SDS011;26539;51.064;6.346;2022-11-23T05:52:06;11.57;;;3.40;;
5217;SDS011;26539;51.064;6.346;2022-11-23T05:54:32;43.43;;;5.97;;
5217;SDS011;26539;51.064;6.346;2022-11-23T05:57:05;9.50;;;3.00;;
5217;SDS011;26539;51.064;6.346;2022-11-23T05:59:33;12.23;;;2.60;;
5217;SDS011;26539;51.064;6.346;2022-11-23T06:02:00;12.10;;;2.57;;
5217;SDS011;26539;51.064;6.346;2022-11-23T06:04:26;20.77;;;3.50;;
5217;SDS011;26539;51.064;6.346;2022-11-23T06:06:52;7.70;;;2.67;;
5217;SDS011;26539;51.064;6.346;2022-11-23T06:09:23;17.53;;;2.97;;
5217;SDS011;26539;51.064;6.346;2022-11-23T06:11:53;14.43;;;3.00;;
5217;SDS011;26539;51.064;6.346;2022-11-23T06:14:19;12.60;;;2.97;;
5217;SDS011;26539;51.064;6.346;2022-11-23T06:16:47;10.83;;;2.80;;
5217;SDS011;26539;51.064;6.346;2022-11-23T06:19:15;15.97;;;3.60;;
5217;SDS011;26539;51.064;6.346;2022-11-23T06:21:46;13.43;;;3.50;;
5217;SDS011;26539;51.064;6.346;2022-11-23T06:24:11;9.80;;;3.37;;
5217;SDS011;26539;51.064;6.346;2022-11-23T06:26:44;13.40;;;3.50;;
5217;SDS011;26539;51.064;6.346;2022-11-23T06:29:15;10.67;;;2.10;;
5217;SDS011;26539;51.064;6.346;2022-11-23T06:31:40;13.20;;;3.90;;
5217;SDS011;26539;51.064;6.346;2022-11-23T06:34:11;22.20;;;3.30;;
5217;SDS011;26539;51.064;6.346;2022-11-23T06:36:40;13.50;;;3.60;;
5217;SDS011;26539;51.064;6.346;2022-11-23T06:39:07;11.57;;;3.30;;
5217;SDS011;26539;51.064;6.346;2022-11-23T06:41:46;13.70;;;5.67;;
5217;SDS011;26539;51.064;6.346;2022-11-23T06:44:18;16.47;;;4.60;;
5217;SDS011;26539;51.064;6.346;2022-11-23T06:46:54;14.07;;;3.40;;
5217;SDS011;26539;51.064;6.346;2022-11-23T06:49:22;13.87;;;4.20;;
5217;SDS011;26539;51.064;6.346;2022-11-23T06:51:53;9.93;;;3.50;;
5217;SDS011;26539;51.064;6.346;2022-11-23T06:54:18;16.63;;;2.63;;
5217;SDS011;26539;51.064;6.346;2022-11-23T06:56:44;14.83;;;3.20;;
5217;SDS011;26539;51.064;6.346;2022-11-23T06:59:09;8.40;;;3.10;;
5217;SDS011;26539;51.064;6.346;2022-11-23T07:01:40;8.57;;;2.80;;
5217;SDS011;26539;51.064;6.346;2022-11-23T07:04:08;8.50;;;2.90;;
5217;SDS011;26539;51.064;6.346;2022-11-23T07:06:38;15.40;;;3.37;;
5217;SDS011;26539;51.064;6.346;2022-11-23T07:09:05;3.87;;;1.80;;
5217;SDS011;26539;51.064;6.346;2022-11-23T07:11:35;11.33;;;2.13;;
5217;SDS011;26539;51.064;6.346;2022-11-23T07:14:18;6.20;;;1.67;;
5217;SDS011;26539;51.064;6.346;2022-11-23T07:16:46;9.20;;;2.30;;
5217;SDS011;26539;51.064;6.346;2022-11-23T07:22:41;10.13;;;2.70;;
5217;SDS011;26539;51.064;6.346;2022-11-23T07:25:10;7.45;;;2.88;;
5217;SDS011;26539;51.064;6.346;2022-11-23T07:27:56;10.32;;;3.00;;
5217;SDS011;26539;51.064;6.346;2022-11-23T07:30:43;5.00;;;1.77;;
5217;SDS011;26539;51.064;6.346;2022-11-23T07:33:32;6.90;;;2.30;;
5217;SDS011;26539;51.064;6.346;2022-11-23T07:36:35;10.33;;;3.30;;
5217;SDS011;26539;51.064;6.346;2022-11-23T07:39:01;12.40;;;3.80;;
5217;SDS011;26539;51.064;6.346;2022-11-23T07:41:29;11.27;;;4.33;;
5217;SDS011;26539;51.064;6.346;2022-11-23T07:47:05;5.07;;;3.67;;
5217;SDS011;26539;51.064;6.346;2022-11-23T07:49:40;10.27;;;4.20;;
5217;SDS011;26539;51.064;6.346;2022-11-23T07:52:16;18.33;;;3.70;;
5217;SDS011;26539;51.064;6.346;2022-11-23T07:55:01;8.03;;;3.47;;
5217;SDS011;26539;51.064;6.346;2022-11-23T07:57:46;12.33;;;3.50;;
5217;SDS011;26539;51.064;6.346;2022-11-23T08:00:16;9.60;;;2.80;;
5217;SDS011;26539;51.064;6.346;2022-11-23T08:03:01;5.40;;;2.80;;
5217;SDS011;26539;51.064;6.346;2022-11-23T08:05:27;8.00;;;3.90;;
5217;SDS011;26539;51.064;6.346;2022-11-23T08:07:58;7.90;;;4.20;;
5217;SDS011;26539;51.064;6.346;2022-11-23T08:10:34;11.60;;;3.90;;
5217;SDS011;26539;51.064;6.346;2022-11-23T08:15:51;6.80;;;2.20;;
5217;SDS011;26539;51.064;6.346;2022-11-23T08:18:23;11.30;;;2.80;;
5217;SDS011;26539;51.064;6.346;2022-11-23T08:21:04;13.57;;;2.53;;
5217;SDS011;26539;51.064;6.346;2022-11-23T08:23:47;6.10;;;2.10;;
5217;SDS011;26539;51.064;6.346;2022-11-23T08:26:15;9.70;;;2.87;;
5217;SDS011;26539;51.064;6.346;2022-11-23T08:29:26;6.60;;;2.10;;
5217;SDS011;26539;51.064;6.346;2022-11-23T08:35:08;8.50;;;2.83;;
5217;SDS011;26539;51.064;6.346;2022-11-23T08:37:36;10.20;;;3.43;;
5217;SDS011;26539;51.064;6.346;2022-11-23T08:40:25;9.70;;;2.87;;
5217;SDS011;26539;51.064;6.346;2022-11-23T08:42:50;7.93;;;2.40;;
5217;SDS011;26539;51.064;6.346;2022-11-23T08:45:38;10.30;;;2.90;;
5217;SDS011;26539;51.064;6.346;2022-11-23T08:51:37;13.80;;;2.77;;
5217;SDS011;26539;51.064;6.346;2022-11-23T08:54:17;9.50;;;2.37;;
5217;SDS011;26539;51.064;6.346;2022-11-23T08:56:43;8.50;;;2.37;;
5217;SDS011;26539;51.064;6.346;2022-11-23T08:59:29;7.97;;;2.33;;
5217;SDS011;26539;51.064;6.346;2022-11-23T09:02:11;9.80;;;2.20;;
5217;SDS011;26539;51.064;6.346;2022-11-23T09:08:15;8.00;;;2.20;;
5217;SDS011;26539;51.064;6.346;2022-11-23T09:10:43;7.93;;;2.47;;
5217;SDS011;26539;51.064;6.346;2022-11-23T09:13:16;11.80;;;2.00;;
5217;SDS011;26539;51.064;6.346;2022-11-23T09:15:41;10.07;;;3.20;;
5217;SDS011;26539;51.064;6.346;2022-11-23T09:18:45;11.23;;;2.93;;
5217;SDS011;26539;51.064;6.346;2022-11-23T09:21:16;9.00;;;2.23;;
5217;SDS011;26539;51.064;6.346;2022-11-23T09:24:01;8.43;;;2.37;;
5217;SDS011;26539;51.064;6.346;2022-11-23T09:26:42;6.50;;;2.00;;
5217;SDS011;26539;51.064;6.346;2022-11-23T09:29:10;13.57;;;2.80;;
5217;SDS011;26539;51.064;6.346;2022-11-23T09:31:39;8.37;;;3.03;;
5217;SDS011;26539;51.064;6.346;2022-11-23T09:34:11;12.37;;;2.47;;
5217;SDS011;26539;51.064;6.346;2022-11-23T09:36:38;7.13;;;2.07;;
5217;SDS011;26539;51.064;6.346;2022-11-23T09:39:03;7.37;;;2.47;;
5217;SDS011;26539;51.064;6.346;2022-11-23T09:44:09;8.33;;;2.77;;
5217;SDS011;26539;51.064;6.346;2022-11-23T09:46:47;11.13;;;3.03;;
5217;SDS011;26539;51.064;6.346;2022-11-23T09:49:29;8.13;;;2.17;;
5217;SDS011;26539;51.064;6.346;2022-11-23T09:52:07;9.93;;;2.67;;
5217;SDS011;26539;51.064;6.346;2022-11-23T09:54:48;9.87;;;2.67;;
5217;SDS011;26539;51.064;6.346;2022-11-23T09:57:24;10.53;;;2.40;;
5217;SDS011;26539;51.064;6.346;2022-11-23T09:59:56;10.73;;;2.43;;
5217;SDS011;26539;51.064;6.346;2022-11-23T10:02:46;12.43;;;2.90;;
5217;SDS011;26539;51.064;6.346;2022-11-23T10:05:22;6.23;;;2.60;;
5217;SDS011;26539;51.064;6.346;2022-11-23T10:08:09;9.67;;;2.10;;
5217;SDS011;26539;51.064;6.346;2022-11-23T10:13:47;6.30;;;2.47;;
5217;SDS011;26539;51.064;6.346;2022-11-23T10:16:59;11.43;;;2.63;;
5217;SDS011;26539;51.064;6.346;2022-11-23T10:22:58;7.40;;;2.93;;
5217;SDS011;26539;51.064;6.346;2022-11-23T10:25:30;5.20;;;1.67;;
5217;SDS011;26539;51.064;6.346;2022-11-23T10:28:28;9.40;;;2.17;;
5217;SDS011;26539;51.064;6.346;2022-11-23T10:31:22;16.60;;;5.90;;
5217;SDS011;26539;51.064;6.346;2022-11-23T10:33:59;8.30;;;3.03;;
5217;SDS011;26539;51.064;6.346;2022-11-23T10:36:36;7.93;;;2.83;;
5217;SDS011;26539;51.064;6.346;2022-11-23T10:39:08;9.57;;;2.80;;
5217;SDS011;26539;51.064;6.346;2022-11-23T10:41:45;7.07;;;2.47;;
5217;SDS011;26539;51.064;6.346;2022-11-23T10:44:15;8.93;;;2.23;;
5217;SDS011;26539;51.064;6.346;2022-11-23T10:46:53;7.10;;;1.30;;
5217;SDS011;26539;51.064;6.346;2022-11-23T10:49:20;5.40;;;1.73;;
5217;SDS011;26539;51.064;6.346;2022-11-23T10:51:52;8.00;;;2.10;;
5217;SDS011;26539;51.064;6.346;2022-11-23T10:57:33;2.90;;;1.50;;
5217;SDS011;26539;51.064;6.346;2022-11-23T11:02:40;4.50;;;1.93;;
5217;SDS011;26539;51.064;6.346;2022-11-23T11:07:53;7.63;;;2.23;;
5217;SDS011;26539;51.064;6.346;2022-11-23T11:10:37;6.53;;;3.53;;
5217;SDS011;26539;51.064;6.346;2022-11-23T11:14:09;3.30;;;1.30;;
5217;SDS011;26539;51.064;6.346;2022-11-23T11:16:24;7.43;;;1.93;;
5217;SDS011;26539;51.064;6.346;2022-11-23T11:18:50;6.03;;;1.43;;
5217;SDS011;26539;51.064;6.346;2022-11-23T11:21:20;4.23;;;1.33;;
5217;SDS011;26539;51.064;6.346;2022-11-23T11:26:23;9.63;;;2.37;;
5217;SDS011;26539;51.064;6.346;2022-11-23T11:28:51;7.93;;;2.93;;
5217;SDS011;26539;51.064;6.346;2022-11-23T11:36:53;8.90;;;4.10;;
5217;SDS011;26539;51.064;6.346;2022-11-23T11:39:32;6.43;;;2.50;;
5217;SDS011;26539;51.064;6.346;2022-11-23T11:42:04;4.73;;;3.13;;
5217;SDS011;26539;51.064;6.346;2022-11-23T11:44:35;6.40;;;1.40;;
5217;SDS011;26539;51.064;6.346;2022-11-23T11:47:50;5.13;;;1.20;;
5217;SDS011;26539;51.064;6.346;2022-11-23T11:49:55;6.40;;;1.50;;
5217;SDS011;26539;51.064;6.346;2022-11-23T11:52:24;6.17;;;5.57;;
5217;SDS011;26539;51.064;6.346;2022-11-23T11:57:44;5.80;;;1.37;;
5217;SDS011;26539;51.064;6.346;2022-11-23T12:00:15;4.33;;;1.10;;
5217;SDS011;26539;51.064;6.346;2022-11-23T12:02:53;5.30;;;1.50;;
5217;SDS011;26539;51.064;6.346;2022-11-23T12:05:39;4.83;;;1.50;;
5217;SDS011;26539;51.064;6.346;2022-11-23T12:10:59;2.83;;;1.30;;
5217;SDS011;26539;51.064;6.346;2022-11-23T12:13:31;3.93;;;1.63;;
5217;SDS011;26539;51.064;6.346;2022-11-23T12:21:36;3.23;;;1.37;;
5217;SDS011;26539;51.064;6.346;2022-11-23T12:27:14;5.10;;;1.50;;
5217;SDS011;26539;51.064;6.346;2022-11-23T12:35:26;4.00;;;2.10;;
5217;SDS011;26539;51.064;6.346;2022-11-23T12:47:07;4.17;;;1.63;;
5217;SDS011;26539;51.064;6.346;2022-11-23T12:55:36;4.25;;;1.30;;
5217;SDS011;26539;51.064;6.346;2022-11-23T12:58:25;5.30;;;2.57;;
5217;SDS011;26539;51.064;6.346;2022-11-23T13:36:32;23.33;;;14.37;;
5217;SDS011;26539;51.064;6.346;2022-11-23T13:52:27;11.53;;;2.10;;
5217;SDS011;26539;51.064;6.346;2022-11-23T13:56:14;3.57;;;1.30;;
5217;SDS011;26539;51.064;6.346;2022-11-23T14:32:55;4.80;;;2.27;;
5217;SDS011;26539;51.064;6.346;2022-11-23T14:46:02;5.50;;;2.17;;
5217;SDS011;26539;51.064;6.346;2022-11-23T14:48:40;9.53;;;5.47;;
5217;SDS011;26539;51.064;6.346;2022-11-23T14:51:15;16.80;;;6.23;;
5217;SDS011;26539;51.064;6.346;2022-11-23T14:56:46;13.10;;;4.70;;
5217;SDS011;26539;51.064;6.346;2022-11-23T15:02:37;12.27;;;4.07;;
5217;SDS011;26539;51.064;6.346;2022-11-23T15:26:30;9.00;;;4.33;;
5217;SDS011;26539;51.064;6.346;2022-11-23T15:29:53;21.67;;;5.40;;
5217;SDS011;26539;51.064;6.346;2022-11-23T15:35:43;18.97;;;4.73;;
5217;SDS011;26539;51.064;6.346;2022-11-23T15:38:19;8.07;;;4.90;;
5217;SDS011;26539;51.064;6.346;2022-11-23T15:40:46;10.83;;;4.70;;
5217;SDS011;26539;51.064;6.346;2022-11-23T15:43:50;26.20;;;6.70;;
5217;SDS011;26539;51.064;6.346;2022-11-23T15:46:44;9.40;;;4.50;;
5217;SDS011;26539;51.064;6.346;2022-11-23T15:49:17;13.83;;;6.60;;
5217;SDS011;26539;51.064;6.346;2022-11-23T15:51:45;14.17;;;7.30;;
5217;SDS011;26539;51.064;6.346;2022-11-23T15:54:17;12.53;;;6.60;;
5217;SDS011;26539;51.064;6.346;2022-11-23T15:56:48;16.80;;;5.80;;
5217;SDS011;26539;51.064;6.346;2022-11-23T16:02:30;25.43;;;9.53;;
5217;SDS011;26539;51.064;6.346;2022-11-23T16:08:21;10.73;;;5.50;;
5217;SDS011;26539;51.064;6.346;2022-11-23T16:10:54;23.43;;;7.00;;
5217;SDS011;26539;51.064;6.346;2022-11-23T16:16:36;9.53;;;5.20;;
5217;SDS011;26539;51.064;6.346;2022-11-23T16:19:14;12.13;;;5.10;;
5217;SDS011;26539;51.064;6.346;2022-11-23T16:21:50;17.97;;;5.20;;
5217;SDS011;26539;51.064;6.346;2022-11-23T16:24:19;21.83;;;4.53;;
5217;SDS011;26539;51.064;6.346;2022-11-23T16:26:48;6.73;;;3.07;;
5217;SDS011;26539;51.064;6.346;2022-11-23T16:29:40;5.47;;;3.07;;
5217;SDS011;26539;51.064;6.346;2022-11-23T16:32:32;8.40;;;3.90;;
5217;SDS011;26539;51.064;6.346;2022-11-23T16:35:03;15.83;;;4.50;;
5217;SDS011;26539;51.064;6.346;2022-11-23T16:40:43;20.23;;;7.60;;
5217;SDS011;26539;51.064;6.346;2022-11-23T16:43:37;11.37;;;5.70;;
5217;SDS011;26539;51.064;6.346;2022-11-23T16:46:07;13.10;;;5.37;;
5217;SDS011;26539;51.064;6.346;2022-11-23T16:52:06;7.87;;;4.20;;
5217;SDS011;26539;51.064;6.346;2022-11-23T16:54:39;13.40;;;4.60;;
5217;SDS011;26539;51.064;6.346;2022-11-23T16:57:14;12.40;;;4.43;;
5217;SDS011;26539;51.064;6.346;2022-11-23T17:00:16;11.53;;;5.30;;
5217;SDS011;26539;51.064;6.346;2022-11-23T17:05:50;10.10;;;6.00;;
5217;SDS011;26539;51.064;6.346;2022-11-23T17:08:44;6.05;;;4.07;;
5217;SDS011;26539;51.064;6.346;2022-11-23T17:11:24;10.20;;;5.80;;
5217;SDS011;26539;51.064;6.346;2022-11-23T17:14:31;9.90;;;6.20;;
5217;SDS011;26539;51.064;6.346;2022-11-23T17:17:39;11.45;;;6.82;;
5217;SDS011;26539;51.064;6.346;2022-11-23T17:20:18;6.30;;;5.15;;
5217;SDS011;26539;51.064;6.346;2022-11-23T17:22:46;12.10;;;7.70;;
5217;SDS011;26539;51.064;6.346;2022-11-23T17:25:25;9.88;;;5.95;;
5217;SDS011;26539;51.064;6.346;2022-11-23T17:34:26;4.60;;;3.88;;
5217;SDS011;26539;51.064;6.346;2022-11-23T17:40:03;5.47;;;4.18;;
5217;SDS011;26539;51.064;6.346;2022-11-23T17:42:36;7.35;;;4.93;;
5217;SDS011;26539;51.064;6.346;2022-11-23T17:45:04;6.47;;;4.63;;
5217;SDS011;26539;51.064;6.346;2022-11-23T17:47:30;8.85;;;4.72;;
5217;SDS011;26539;51.064;6.346;2022-11-23T17:49:58;8.77;;;6.93;;
5217;SDS011;26539;51.064;6.346;2022-11-23T17:52:24;6.70;;;6.00;;
5217;SDS011;26539;51.064;6.346;2022-11-23T17:54:50;8.60;;;4.80;;
5217;SDS011;26539;51.064;6.346;2022-11-23T17:57:17;11.20;;;6.27;;
5217;SDS011;26539;51.064;6.346;2022-11-23T17:59:54;13.75;;;6.65;;
5217;SDS011;26539;51.064;6.346;2022-11-23T18:02:20;12.98;;;6.13;;
5217;SDS011;26539;51.064;6.346;2022-11-23T18:04:47;8.70;;;6.37;;
5217;SDS011;26539;51.064;6.346;2022-11-23T18:07:15;7.75;;;6.70;;
5217;SDS011;26539;51.064;6.346;2022-11-23T18:09:53;14.30;;;10.38;;
5217;SDS011;26539;51.064;6.346;2022-11-23T18:12:20;8.00;;;5.25;;
5217;SDS011;26539;51.064;6.346;2022-11-23T18:14:45;7.30;;;4.67;;
5217;SDS011;26539;51.064;6.346;2022-11-23T18:17:11;23.60;;;12.40;;
5217;SDS011;26539;51.064;6.346;2022-11-23T18:19:37;9.30;;;7.23;;
5217;SDS011;26539;51.064;6.346;2022-11-23T18:22:05;7.90;;;6.27;;
5217;SDS011;26539;51.064;6.346;2022-11-23T18:24:31;9.50;;;7.00;;
5217;SDS011;26539;51.064;6.346;2022-11-23T18:26:56;7.00;;;4.53;;
5217;SDS011;26539;51.064;6.346;2022-11-23T18:29:22;13.40;;;7.13;;
5217;SDS011;26539;51.064;6.346;2022-11-23T18:31:47;7.80;;;5.93;;
5217;SDS011;26539;51.064;6.346;2022-11-23T18:34:15;8.98;;;6.93;;
5217;SDS011;26539;51.064;6.346;2022-11-23T18:36:47;6.13;;;4.20;;
5217;SDS011;26539;51.064;6.346;2022-11-23T18:39:12;5.63;;;4.00;;
5217;SDS011;26539;51.064;6.346;2022-11-23T18:41:38;6.93;;;4.20;;
5217;SDS011;26539;51.064;6.346;2022-11-23T18:44:06;9.20;;;3.50;;
5217;SDS011;26539;51.064;6.346;2022-11-23T18:46:35;4.85;;;3.70;;
5217;SDS011;26539;51.064;6.346;2022-11-23T18:49:05;6.10;;;3.60;;
5217;SDS011;26539;51.064;6.346;2022-11-23T18:51:31;7.25;;;4.53;;
5217;SDS011;26539;51.064;6.346;2022-11-23T18:53:59;7.27;;;3.50;;
5217;SDS011;26539;51.064;6.346;2022-11-23T18:56:27;9.50;;;3.90;;
5217;SDS011;26539;51.064;6.346;2022-11-23T18:58:55;6.40;;;3.13;;
5217;SDS011;26539;51.064;6.346;2022-11-23T19:01:26;9.30;;;4.00;;
5217;SDS011;26539;51.064;6.346;2022-11-23T19:03:52;9.60;;;3.77;;
5217;SDS011;26539;51.064;6.346;2022-11-23T19:06:19;9.70;;;4.30;;
5217;SDS011;26539;51.064;6.346;2022-11-23T19:08:47;8.85;;;4.03;;
5217;SDS011;26539;51.064;6.346;2022-11-23T19:11:21;9.45;;;4.03;;
5217;SDS011;26539;51.064;6.346;2022-11-23T19:13:56;7.82;;;3.53;;
5217;SDS011;26539;51.064;6.346;2022-11-23T19:16:26;7.38;;;4.28;;
5217;SDS011;26539;51.064;6.346;2022-11-23T19:18:56;14.82;;;5.43;;
5217;SDS011;26539;51.064;6.346;2022-11-23T19:21:27;13.00;;;4.35;;
5217;SDS011;26539;51.064;6.346;2022-11-23T19:23:55;9.98;;;4.32;;
5217;SDS011;26539;51.064;6.346;2022-11-23T19:26:24;7.28;;;4.07;;
5217;SDS011;26539;51.064;6.346;2022-11-23T19:28:56;11.35;;;3.85;;
5217;SDS011;26539;51.064;6.346;2022-11-23T19:31:23;12.73;;;4.25;;
5217;SDS011;26539;51.064;6.346;2022-11-23T19:34:00;9.93;;;4.15;;
5217;SDS011;26539;51.064;6.346;2022-11-23T19:36:33;13.98;;;3.72;;
5217;SDS011;26539;51.064;6.346;2022-11-23T19:39:08;9.45;;;3.97;;
5217;SDS011;26539;51.064;6.346;2022-11-23T19:41:34;12.23;;;4.45;;
5217;SDS011;26539;51.064;6.346;2022-11-23T19:44:08;13.82;;;4.40;;
5217;SDS011;26539;51.064;6.346;2022-11-23T19:46:39;17.40;;;4.53;;
5217;SDS011;26539;51.064;6.346;2022-11-23T19:49:05;25.77;;;6.17;;
5217;SDS011;26539;51.064;6.346;2022-11-23T19:51:32;12.23;;;4.90;;
5217;SDS011;26539;51.064;6.346;2022-11-23T19:54:04;16.10;;;5.20;;
5217;SDS011;26539;51.064;6.346;2022-11-23T19:56:30;16.75;;;5.35;;
5217;SDS011;26539;51.064;6.346;2022-11-23T19:58:57;21.15;;;6.25;;
5217;SDS011;26539;51.064;6.346;2022-11-23T20:01:28;17.23;;;5.32;;
5217;SDS011;26539;51.064;6.346;2022-11-23T20:03:57;26.80;;;6.90;;
5217;SDS011;26539;51.064;6.346;2022-11-23T20:06:26;20.23;;;5.40;;
5217;SDS011;26539;51.064;6.346;2022-11-23T20:08:54;15.63;;;4.35;;
5217;SDS011;26539;51.064;6.346;2022-11-23T20:11:21;16.63;;;5.10;;
5217;SDS011;26539;51.064;6.346;2022-11-23T20:13:46;22.30;;;5.17;;
5217;SDS011;26539;51.064;6.346;2022-11-23T20:16:22;24.40;;;5.67;;
5217;SDS011;26539;51.064;6.346;2022-11-23T20:18:52;22.83;;;5.05;;
5217;SDS011;26539;51.064;6.346;2022-11-23T20:21:23;17.88;;;5.00;;